Time;durP1;ratioP1;P1;durP2;ratioP2;P2;SDS_P1;SDS_P2;PMS_P1;PMS_P2;Temp;Humidity;BMP_temperature;BMP_pressure;BME280_temperature;BME280_humidity;BME280_pressure;Samples;Min_cycle;Max_cycle;Signal;HPM_P1;HPM_P2
2023/08/20 00:00:59;;;;;;;4.22;3.40;;;;;;;27.52;37.70;98899.94;4993107;28;20040;-70
2023/08/20 00:03:24;;;;;;;5.43;3.30;;;;;;;27.44;37.81;98895.69;4977209;28;20130;-70
2023/08/20 00:05:50;;;;;;;3.47;3.13;;;;;;;27.44;37.99;98901.03;4977054;28;20496;-70
2023/08/20 00:08:16;;;;;;;7.50;3.13;;;;;;;27.37;38.03;98892.22;4993714;28;20512;-70
2023/08/20 00:10:41;;;;;;;5.50;3.30;;;;;;;27.34;38.00;98890.00;4976711;28;20042;-70
2023/08/20 00:13:07;;;;;;;4.65;3.30;;;;;;;27.35;38.13;98894.31;4976332;28;20062;-70
2023/08/20 00:15:32;;;;;;;5.57;3.40;;;;;;;27.32;38.28;98895.56;4993198;28;20026;-70
2023/08/20 00:17:58;;;;;;;4.05;3.45;;;;;;;27.27;37.89;98890.03;4977647;28;20100;-70
2023/08/20 00:20:24;;;;;;;4.40;3.03;;;;;;;27.26;38.53;98897.28;4993526;28;20038;-70
2023/08/20 00:22:50;;;;;;;4.40;3.22;;;;;;;27.20;38.32;98892.78;4992934;28;20026;-70
2023/08/20 00:25:16;;;;;;;5.47;3.35;;;;;;;27.22;38.65;98889.91;4993101;28;20026;-70
2023/08/20 00:27:42;;;;;;;3.95;3.40;;;;;;;27.17;38.42;98882.53;4993911;28;20088;-70
2023/08/20 00:30:08;;;;;;;8.20;3.83;;;;;;;27.17;38.47;98887.88;4993079;28;20464;-70
2023/08/20 00:32:34;;;;;;;5.78;3.80;;;;;;;27.14;38.73;98892.88;4992722;28;20497;-70
2023/08/20 00:34:59;;;;;;;4.38;3.40;;;;;;;27.13;38.74;98889.34;4993129;28;20110;-70
2023/08/20 00:37:25;;;;;;;3.65;3.10;;;;;;;27.13;38.33;98888.53;4993005;28;20050;-70
2023/08/20 00:39:50;;;;;;;5.57;3.42;;;;;;;27.10;38.49;98888.97;4992489;28;20038;-70
2023/08/20 00:42:16;;;;;;;7.15;3.25;;;;;;;27.08;38.40;98894.56;4992574;28;20112;-70
2023/08/20 00:44:44;;;;;;;5.28;3.38;;;;;;;27.04;38.67;98885.31;4993013;28;20038;-70
2023/08/20 00:47:09;;;;;;;4.78;3.40;;;;;;;27.01;38.91;98886.59;4992419;28;20043;-70
2023/08/20 00:49:35;;;;;;;4.68;3.25;;;;;;;26.97;38.97;98881.91;4992317;28;20093;-70
2023/08/20 00:52:00;;;;;;;4.90;3.03;;;;;;;26.96;38.91;98877.56;4992674;28;20038;-70
2023/08/20 00:54:26;;;;;;;6.68;3.22;;;;;;;26.94;38.78;98876.97;4976185;28;20030;-70
2023/08/20 00:56:51;;;;;;;4.25;3.15;;;;;;;26.89;38.75;98874.94;4992186;28;20042;-70
2023/08/20 00:59:17;;;;;;;4.22;3.65;;;;;;;26.89;38.75;98873.09;4992284;28;20109;-70
2023/08/20 01:01:43;;;;;;;4.43;3.20;;;;;;;26.84;39.25;98867.56;4992300;28;20030;-70
2023/08/20 01:04:08;;;;;;;5.32;3.70;;;;;;;26.80;39.21;98862.88;4992133;28;20030;-70
2023/08/20 01:07:03;;;;;;;5.15;3.42;;;;;;;26.81;39.25;98867.19;4992176;28;20035;-70
2023/08/20 01:09:46;;;;;;;4.57;3.60;;;;;;;26.78;39.16;98868.44;4985224;28;20606;-70
2023/08/20 01:12:12;;;;;;;5.25;3.30;;;;;;;26.73;39.71;98867.50;4991600;28;20101;-70
2023/08/20 01:14:37;;;;;;;5.03;3.42;;;;;;;26.72;39.18;98874.69;4992145;28;20034;-70
2023/08/20 01:17:02;;;;;;;4.72;3.20;;;;;;;26.70;39.69;98874.91;4992123;28;20043;-70
2023/08/20 01:19:28;;;;;;;6.18;3.50;;;;;;;26.68;39.59;98874.31;4992934;28;20173;-70
2023/08/20 01:22:14;;;;;;;5.25;3.22;;;;;;;26.66;39.44;98871.03;4975786;28;20038;-70
2023/08/20 01:24:59;;;;;;;4.82;3.50;;;;;;;26.63;39.81;98867.91;4994425;28;20033;-70
2023/08/20 01:27:45;;;;;;;3.95;3.08;;;;;;;26.60;39.52;98863.00;4992645;28;20038;-70
2023/08/20 01:30:10;;;;;;;4.47;3.55;;;;;;;26.51;39.92;98851.75;4993068;28;20022;-70
2023/08/20 01:32:36;;;;;;;4.10;3.40;;;;;;;26.53;39.97;98865.75;4992037;28;20088;-70
2023/08/20 01:35:02;;;;;;;4.97;3.30;;;;;;;26.50;39.70;98867.00;4975660;28;20023;-70
2023/08/20 01:37:28;;;;;;;4.30;3.50;;;;;;;26.50;39.78;98872.38;4975438;28;20065;-70
2023/08/20 01:39:53;;;;;;;4.43;3.30;;;;;;;26.45;40.10;98857.97;4976344;28;20496;-70
2023/08/20 01:42:19;;;;;;;4.65;3.35;;;;;;;26.47;39.85;98864.78;4975562;28;20406;-70
2023/08/20 01:44:44;;;;;;;5.45;3.40;;;;;;;26.45;39.92;98864.16;4992023;28;20046;-70
2023/08/20 01:47:10;;;;;;;4.80;3.70;;;;;;;26.39;39.84;98854.31;4992810;28;20035;-70
2023/08/20 01:49:35;;;;;;;6.72;3.38;;;;;;;26.39;40.10;98858.84;4975352;28;20030;-70
2023/08/20 01:52:01;;;;;;;5.07;3.40;;;;;;;26.42;39.78;98866.44;4991587;28;20038;-70
2023/08/20 01:54:27;;;;;;;4.93;3.30;;;;;;;26.37;40.08;98864.41;4991859;28;20469;-70
2023/08/20 01:56:52;;;;;;;5.88;3.15;;;;;;;26.38;39.74;98862.56;4975625;28;20041;-70
2023/08/20 01:59:18;;;;;;;4.57;3.20;;;;;;;26.32;39.90;98854.34;4991454;28;20473;-70
2023/08/20 02:01:44;;;;;;;4.80;3.40;;;;;;;26.32;39.97;98854.34;4991680;28;20038;-70
2023/08/20 02:04:09;;;;;;;5.57;3.35;;;;;;;26.33;40.05;98861.38;4975262;28;20080;-70
2023/08/20 02:06:35;;;;;;;4.38;3.38;;;;;;;26.28;39.94;98852.34;4992608;28;20046;-70
2023/08/20 02:09:00;;;;;;;4.75;3.50;;;;;;;26.29;40.37;98853.97;4975032;28;20425;-70
2023/08/20 02:11:25;;;;;;;5.10;3.63;;;;;;;26.24;39.92;98853.81;4991071;28;21359;-70
2023/08/20 02:13:51;;;;;;;4.57;3.33;;;;;;;26.27;39.99;98866.75;4991505;28;20045;-71
2023/08/20 02:16:17;;;;;;;5.50;3.53;;;;;;;26.26;40.01;98859.75;4991290;28;20042;-71
2023/08/20 02:18:43;;;;;;;5.35;3.40;;;;;;;26.24;40.18;98870.69;4991503;28;20023;-70
2023/08/20 02:21:08;;;;;;;5.18;3.65;;;;;;;26.19;39.90;98862.50;4975107;28;20037;-70
2023/08/20 02:23:33;;;;;;;4.65;3.33;;;;;;;26.21;40.12;98863.09;4975234;28;20030;-70
2023/08/20 02:26:00;;;;;;;3.88;3.10;;;;;;;26.18;40.35;98858.16;4992307;28;20075;-71
2023/08/20 02:28:25;;;;;;;4.60;3.40;;;;;;;26.21;40.18;98870.31;4991450;28;20089;-71
2023/08/20 02:30:51;;;;;;;4.93;3.58;;;;;;;26.15;40.40;98851.38;4991128;28;20031;-70
2023/08/20 02:33:16;;;;;;;4.45;3.25;;;;;;;26.16;40.58;98849.53;4991030;28;20037;-70
2023/08/20 02:35:42;;;;;;;4.15;3.22;;;;;;;26.15;40.38;98854.06;4975146;28;20046;-71
2023/08/20 02:38:09;;;;;;;3.95;3.38;;;;;;;26.17;40.13;98868.06;4974742;28;20037;-70
2023/08/20 02:40:39;;;;;;;3.95;3.45;;;;;;;26.13;40.45;98864.16;4978837;28;20479;-70
2023/08/20 02:43:05;;;;;;;4.85;3.78;;;;;;;26.15;40.50;98867.44;4994780;28;20046;-70
2023/08/20 02:45:31;;;;;;;4.60;3.40;;;;;;;26.15;40.31;98861.25;4994740;28;20030;-70
2023/08/20 02:47:57;;;;;;;5.68;3.40;;;;;;;26.15;40.46;98863.94;4995881;28;20038;-70
2023/08/20 02:50:22;;;;;;;3.60;3.08;;;;;;;26.08;40.55;98858.63;4994448;28;20437;-71
2023/08/20 02:52:48;;;;;;;5.68;3.20;;;;;;;26.12;40.21;98870.53;4994706;28;20077;-71
2023/08/20 02:55:13;;;;;;;3.95;3.20;;;;;;;26.08;40.58;98871.19;4995775;28;20405;-70
2023/08/20 02:57:39;;;;;;;3.97;3.20;;;;;;;26.05;40.25;98867.09;4994445;28;20026;-70
2023/08/20 03:00:05;;;;;;;6.53;3.58;;;;;;;26.04;40.57;98860.09;4994773;28;20500;-70
2023/08/20 03:02:30;;;;;;;5.00;3.40;;;;;;;26.03;40.32;98871.84;4994353;28;20041;-70
2023/08/20 03:04:56;;;;;;;5.93;3.35;;;;;;;26.05;40.70;98871.63;4978403;28;20027;-70
2023/08/20 03:07:22;;;;;;;4.20;3.42;;;;;;;26.03;40.73;98871.00;4995755;28;20563;-70
2023/08/20 03:09:48;;;;;;;3.90;3.05;;;;;;;26.00;40.39;98862.38;4995572;28;20030;-70
2023/08/20 03:12:13;;;;;;;5.07;3.50;;;;;;;26.03;40.59;98874.53;4977518;28;20085;-70
2023/08/20 03:14:39;;;;;;;4.13;3.20;;;;;;;26.03;40.37;98873.69;4978187;28;20085;-71
2023/08/20 03:17:04;;;;;;;5.45;3.28;;;;;;;26.00;40.46;98869.59;4978065;28;20046;-70
2023/08/20 03:19:33;;;;;;;5.28;3.10;;;;;;;25.97;40.74;98862.81;4994011;28;20073;-70
2023/08/20 03:21:58;;;;;;;5.85;3.35;;;;;;;26.01;40.67;98865.88;4994359;28;20046;-70
2023/08/20 03:24:24;;;;;;;6.53;3.25;;;;;;;25.97;40.50;98862.00;4994951;28;20053;-70
2023/08/20 03:26:49;;;;;;;3.88;3.22;;;;;;;26.00;40.75;98867.72;4977627;28;20038;-70
2023/08/20 03:29:14;;;;;;;5.18;3.45;;;;;;;26.00;40.75;98859.72;4993902;28;20395;-70
2023/08/20 03:31:40;;;;;;;3.95;3.15;;;;;;;26.02;40.24;98867.53;4993950;28;20041;-70
2023/08/20 03:34:05;;;;;;;5.97;3.28;;;;;;;26.03;40.38;98869.16;4977448;28;20030;-70
2023/08/20 03:36:32;;;;;;;6.05;3.80;;;;;;;26.09;40.47;98868.31;4994344;28;20049;-70
2023/08/20 03:38:57;;;;;;;3.92;3.20;;;;;;;26.15;40.19;98866.63;4977712;28;20037;-70
2023/08/20 03:41:23;;;;;;;3.85;3.20;;;;;;;26.29;40.02;98875.38;4993531;28;20038;-70
2023/08/20 03:43:48;;;;;;;6.22;3.17;;;;;;;26.41;39.89;98864.78;4993645;28;20501;-70
2023/08/20 03:46:14;;;;;;;3.47;2.95;;;;;;;26.54;39.48;98856.69;4994741;28;20070;-70
2023/08/20 03:48:39;;;;;;;5.45;3.08;;;;;;;26.82;38.74;98872.34;4977273;28;20042;-70
2023/08/20 03:51:04;;;;;;;4.03;3.03;;;;;;;27.10;38.51;98871.03;4976345;28;20041;-71
2023/08/20 03:53:30;;;;;;;4.78;3.22;;;;;;;27.38;37.91;98869.75;4993260;28;20045;-70
2023/08/20 03:55:55;;;;;;;6.30;3.00;;;;;;;27.63;37.21;98869.69;4994337;28;20035;-70
2023/08/20 03:58:21;;;;;;;3.28;2.95;;;;;;;28.03;36.53;98868.38;4994625;28;20035;-71
2023/08/20 04:00:46;;;;;;;3.65;2.90;;;;;;;28.41;35.54;98861.84;4993593;28;20030;-70
2023/08/20 04:03:12;;;;;;;5.20;2.90;;;;;;;28.86;34.96;98874.75;4976866;28;20034;-71
2023/08/20 04:05:37;;;;;;;4.25;2.83;;;;;;;29.28;34.29;98869.28;4994614;28;20394;-71
2023/08/20 04:08:04;;;;;;;7.90;2.90;;;;;;;29.70;33.60;98871.75;4976851;28;20038;-71
2023/08/20 04:10:30;;;;;;;4.25;2.90;;;;;;;30.18;32.86;98868.91;4976932;28;20033;-71
2023/08/20 04:12:55;;;;;;;3.55;2.70;;;;;;;30.59;32.34;98869.63;4992835;28;20054;-70
2023/08/20 04:15:21;;;;;;;4.18;2.72;;;;;;;31.03;31.21;98869.78;4994245;28;20030;-71
2023/08/20 04:17:47;;;;;;;5.85;2.80;;;;;;;31.46;30.69;98859.28;4994124;28;20069;-71
2023/08/20 04:20:12;;;;;;;4.03;2.80;;;;;;;31.25;31.06;98866.28;4993090;28;20484;-71
2023/08/20 04:22:38;;;;;;;3.97;2.63;;;;;;;30.99;31.09;98874.03;4994486;28;20034;-71
2023/08/20 04:25:04;;;;;;;3.65;2.67;;;;;;;31.45;30.75;98871.94;4992854;28;20030;-70
2023/08/20 04:27:30;;;;;;;6.60;2.90;;;;;;;32.13;29.58;98876.28;4993061;28;20116;-70
2023/08/20 04:29:56;;;;;;;3.40;2.58;;;;;;;32.36;29.07;98862.44;4992684;28;20486;-70
2023/08/20 04:32:21;;;;;;;6.20;2.70;;;;;;;32.23;29.64;98874.50;4976343;28;20117;-70
2023/08/20 04:34:49;;;;;;;4.28;2.58;;;;;;;33.15;28.33;98879.78;4992570;28;20072;-70
2023/08/20 04:37:14;;;;;;;3.08;2.70;;;;;;;33.81;27.55;98869.56;4993716;28;20034;-70
2023/08/20 04:39:40;;;;;;;3.92;2.60;;;;;;;34.53;26.54;98880.53;4993606;28;20045;-70
2023/08/20 04:42:05;;;;;;;5.72;2.35;;;;;;;35.18;25.84;98869.06;4992152;28;20050;-71
2023/08/20 04:44:31;;;;;;;4.65;2.40;;;;;;;35.76;25.01;98872.16;4993307;28;20030;-70
2023/08/20 04:46:56;;;;;;;6.32;2.50;;;;;;;36.35;24.40;98875.03;4992141;28;20061;-70
2023/08/20 04:49:22;;;;;;;4.18;2.38;;;;;;;37.09;23.62;98883.91;5008787;28;20042;-70
2023/08/20 04:51:47;;;;;;;4.10;2.08;;;;;;;37.84;22.66;98873.50;4993332;28;20035;-71
2023/08/20 04:54:13;;;;;;;4.50;2.40;;;;;;;38.45;22.10;98866.31;4991906;28;20350;-70
2023/08/20 04:56:38;;;;;;;3.95;2.25;;;;;;;38.91;21.37;98870.19;4992066;28;20065;-70
2023/08/20 04:59:04;;;;;;;3.55;2.42;;;;;;;39.61;20.88;98871.81;4992484;28;20117;-71
2023/08/20 05:01:29;;;;;;;3.90;2.50;;;;;;;40.23;20.16;98870.47;4991619;28;20038;-71
2023/08/20 05:03:55;;;;;;;4.68;2.20;;;;;;;40.82;19.61;98869.56;4991255;28;20053;-71
2023/08/20 05:06:20;;;;;;;6.00;2.30;;;;;;;41.29;19.14;98867.19;4992062;28;20497;-70
2023/08/20 05:08:46;;;;;;;5.00;2.30;;;;;;;41.46;19.08;98868.38;4992942;28;20061;-71
2023/08/20 05:11:11;;;;;;;4.30;2.38;;;;;;;41.94;18.63;98875.69;4975189;28;20050;-71
2023/08/20 05:13:37;;;;;;;4.63;2.10;;;;;;;42.38;18.14;98868.25;4975347;28;20042;-70
2023/08/20 05:16:02;;;;;;;4.13;2.20;;;;;;;42.65;17.78;98872.59;4992796;28;20509;-71
2023/08/20 05:18:28;;;;;;;4.70;2.10;;;;;;;43.09;17.74;98882.63;4992732;28;20060;-70
2023/08/20 05:20:53;;;;;;;5.80;2.60;;;;;;;43.42;17.39;98882.78;4991876;28;20027;-71
2023/08/20 05:23:19;;;;;;;4.13;2.10;;;;;;;43.68;17.04;98879.06;4991651;28;20042;-71
2023/08/20 05:25:44;;;;;;;3.90;2.33;;;;;;;44.00;17.12;98883.03;4959307;28;20410;-71
2023/08/20 05:28:10;;;;;;;5.13;2.13;;;;;;;44.31;16.75;98890.06;4991576;28;20030;-71
2023/08/20 05:30:35;;;;;;;4.77;2.10;;;;;;;44.54;16.35;98878.69;4992611;28;20042;-71
2023/08/20 05:33:01;;;;;;;3.70;2.00;;;;;;;44.79;15.84;98885.06;4991526;28;20049;-70
2023/08/20 05:35:26;;;;;;;3.77;2.10;;;;;;;45.02;16.26;98888.19;4991515;28;20026;-72
2023/08/20 05:37:51;;;;;;;2.83;2.17;;;;;;;45.16;15.68;98880.38;4991728;28;20049;-71
2023/08/20 05:40:17;;;;;;;4.17;2.03;;;;;;;45.42;15.77;98882.00;4959348;28;20038;-70
2023/08/20 05:42:42;;;;;;;3.63;1.87;;;;;;;45.60;15.37;98887.25;4992514;28;20469;-71
2023/08/20 05:45:08;;;;;;;3.20;2.10;;;;;;;45.76;15.26;98882.63;4975025;28;20037;-72
2023/08/20 05:47:34;;;;;;;3.17;1.90;;;;;;;45.89;15.01;98883.41;4990860;28;20030;-71
2023/08/20 05:49:59;;;;;;;2.97;1.80;;;;;;;46.02;15.41;98882.22;4992700;28;20530;-71
2023/08/20 05:52:25;;;;;;;4.27;1.90;;;;;;;46.17;15.23;98882.66;4991399;28;20038;-71
2023/08/20 05:54:50;;;;;;;4.27;2.03;;;;;;;46.31;14.92;98882.25;4975095;28;20065;-70
2023/08/20 05:57:16;;;;;;;4.43;1.90;;;;;;;46.41;14.55;98885.25;4990838;28;20405;-71
2023/08/20 05:59:41;;;;;;;3.97;1.73;;;;;;;46.50;14.68;98878.81;4992824;28;20050;-72
2023/08/20 06:02:07;;;;;;;8.80;2.00;;;;;;;46.60;14.69;98880.25;4990810;28;20370;-72
2023/08/20 06:04:32;;;;;;;4.30;2.00;;;;;;;46.66;14.71;98881.59;4992218;28;20027;-71
2023/08/20 06:06:58;;;;;;;4.40;1.90;;;;;;;46.73;14.32;98876.25;4991185;28;20035;-71
2023/08/20 06:09:23;;;;;;;2.97;1.90;;;;;;;46.81;14.50;98877.22;4974847;28;20081;-70
2023/08/20 06:11:49;;;;;;;2.63;1.70;;;;;;;46.92;13.98;98881.09;4975027;28;20676;-72
2023/08/20 06:14:14;;;;;;;3.13;1.80;;;;;;;46.96;14.08;98873.69;4993182;28;20046;-70
2023/08/20 06:16:40;;;;;;;3.77;1.60;;;;;;;46.99;14.23;98872.97;4994922;28;20034;-74
2023/08/20 06:19:05;;;;;;;3.60;1.90;;;;;;;47.06;14.07;98877.88;4962831;28;20042;-71
2023/08/20 06:21:31;;;;;;;3.80;1.80;;;;;;;47.07;14.07;98880.28;4978896;28;20034;-71
2023/08/20 06:23:56;;;;;;;7.00;1.80;;;;;;;47.12;14.00;98881.97;4978385;28;20108;-70
2023/08/20 06:26:22;;;;;;;5.20;1.97;;;;;;;47.15;13.69;98874.94;4994579;28;20042;-71
2023/08/20 06:28:47;;;;;;;3.20;1.70;;;;;;;47.19;14.13;98881.31;4962433;28;20057;-71
2023/08/20 06:31:13;;;;;;;2.50;1.73;;;;;;;47.25;13.64;98883.44;4978403;28;20026;-71
2023/08/20 06:33:38;;;;;;;3.73;1.63;;;;;;;47.31;13.76;98889.53;4962400;28;20038;-71
2023/08/20 06:36:04;;;;;;;3.27;1.77;;;;;;;47.32;13.91;98893.91;4961951;28;20414;-75
2023/08/20 06:38:29;;;;;;;3.63;1.83;;;;;;;47.37;13.66;98895.59;4977806;28;20103;-70
2023/08/20 06:40:56;;;;;;;5.90;1.93;;;;;;;47.38;13.59;98891.66;4994528;28;20112;-71
2023/08/20 06:43:21;;;;;;;5.28;1.90;;;;;;;47.41;13.76;98899.22;4995697;28;20470;-71
2023/08/20 06:45:47;;;;;;;3.97;1.80;;;;;;;47.41;13.51;98902.00;4994364;28;20035;-72
2023/08/20 06:48:12;;;;;;;3.33;1.60;;;;;;;47.44;13.58;98906.78;4977802;28;20089;-71
2023/08/20 06:50:38;;;;;;;3.70;1.80;;;;;;;47.44;13.46;98904.03;4995492;28;20077;-70
2023/08/20 06:53:03;;;;;;;2.37;1.77;;;;;;;47.45;13.46;98902.88;4978224;28;20038;-71
2023/08/20 06:55:29;;;;;;;3.20;1.77;;;;;;;47.48;13.68;98897.44;4978070;28;20057;-70
2023/08/20 06:57:54;;;;;;;3.40;1.83;;;;;;;47.51;13.38;98901.44;4995466;28;20050;-71
2023/08/20 07:00:20;;;;;;;3.73;2.00;;;;;;;47.53;13.34;98904.63;4993889;28;20493;-71
2023/08/20 07:02:45;;;;;;;2.73;1.80;;;;;;;47.51;13.53;98906.97;4978786;28;20046;-71
2023/08/20 07:05:11;;;;;;;2.47;1.80;;;;;;;47.51;13.51;98909.72;4978067;28;20073;-71
2023/08/20 07:07:36;;;;;;;3.47;1.90;;;;;;;47.48;13.04;98902.94;4995122;28;20030;-71
2023/08/20 07:10:03;;;;;;;3.43;1.80;;;;;;;47.48;12.92;98905.72;4994092;28;20129;-70
2023/08/20 07:12:28;;;;;;;3.25;1.60;;;;;;;47.44;13.19;98898.50;4993839;28;20494;-71
2023/08/20 07:14:54;;;;;;;2.67;1.60;;;;;;;47.38;13.32;98894.41;4994842;28;20033;-71
2023/08/20 07:17:19;;;;;;;3.07;1.83;;;;;;;47.32;12.99;98893.09;4994654;28;20089;-71
2023/08/20 07:19:45;;;;;;;2.17;1.60;;;;;;;47.31;13.38;98899.78;4993819;28;20026;-71
2023/08/20 07:22:10;;;;;;;3.47;1.60;;;;;;;47.27;13.40;98889.44;4993702;28;20026;-71
2023/08/20 07:24:36;;;;;;;2.77;1.90;;;;;;;47.28;13.15;98892.97;4977209;28;20038;-71
2023/08/20 07:27:03;;;;;;;3.77;1.70;;;;;;;47.30;13.35;98887.91;4993984;28;20065;-70
2023/08/20 07:29:29;;;;;;;3.22;1.67;;;;;;;47.32;13.42;98888.38;4994790;28;20027;-70
2023/08/20 07:31:56;;;;;;;3.03;1.80;;;;;;;47.34;13.34;98883.28;4994024;28;20033;-71
2023/08/20 07:34:21;;;;;;;3.38;1.70;;;;;;;47.35;13.45;98884.06;4993699;28;20492;-73
2023/08/20 07:36:47;;;;;;;4.67;1.70;;;;;;;47.38;13.37;98881.41;4978506;28;20119;-72
2023/08/20 07:39:12;;;;;;;2.23;1.50;;;;;;;47.43;12.99;98874.78;4977922;28;20027;-72
2023/08/20 07:41:38;;;;;;;4.60;1.90;;;;;;;47.43;13.09;98874.78;4961421;28;20057;-72
2023/08/20 07:44:04;;;;;;;2.57;1.57;;;;;;;47.49;13.27;98881.63;4993513;28;20099;-72
2023/08/20 07:46:29;;;;;;;4.70;1.98;;;;;;;47.51;13.37;98870.22;4992637;28;20066;-71
2023/08/20 07:48:55;;;;;;;3.30;1.90;;;;;;;47.58;13.26;98865.63;4993377;28;20053;-72
2023/08/20 07:51:20;;;;;;;3.30;1.50;;;;;;;47.58;13.23;98853.78;4993229;28;20030;-71
2023/08/20 07:53:46;;;;;;;3.83;1.60;;;;;;;47.57;13.27;98858.53;4994784;28;20030;-71
2023/08/20 07:56:11;;;;;;;2.97;1.90;;;;;;;47.58;12.94;98849.06;4994170;28;20030;-72
2023/08/20 07:58:36;;;;;;;3.20;1.60;;;;;;;47.55;13.17;98849.78;4994174;28;20446;-70
2023/08/20 08:01:02;;;;;;;6.23;1.80;;;;;;;47.59;13.07;98855.41;4993256;28;20084;-71
2023/08/20 08:03:28;;;;;;;5.53;1.90;;;;;;;47.60;13.07;98846.75;4977035;28;20038;-72
2023/08/20 08:05:54;;;;;;;5.07;1.70;;;;;;;47.63;13.16;98843.22;4994151;28;20030;-71
2023/08/20 08:08:19;;;;;;;2.58;1.67;;;;;;;47.66;13.07;98848.03;4993186;28;20096;-71
2023/08/20 08:10:45;;;;;;;3.33;1.70;;;;;;;47.70;12.85;98842.63;4976950;28;20477;-71
2023/08/20 08:13:15;;;;;;;4.38;1.88;;;;;;;47.72;13.01;98842.25;4976466;28;20568;-71
2023/08/20 08:15:40;;;;;;;3.03;1.60;;;;;;;47.72;13.17;98843.06;4960617;28;20089;-71
2023/08/20 08:18:07;;;;;;;4.00;1.70;;;;;;;47.70;12.89;98830.75;4976545;28;20062;-72
2023/08/20 08:20:32;;;;;;;3.97;1.63;;;;;;;47.69;12.34;98826.41;4992853;28;20030;-71
2023/08/20 08:22:58;;;;;;;3.53;1.70;;;;;;;47.66;12.46;98836.97;4992729;28;20515;-72
2023/08/20 08:25:23;;;;;;;2.70;1.40;;;;;;;47.61;12.47;98842.00;4993829;28;20409;-71
2023/08/20 08:27:49;;;;;;;6.33;1.60;;;;;;;47.53;12.40;98846.59;4993586;28;20026;-71
2023/08/20 08:30:14;;;;;;;7.57;1.90;;;;;;;47.42;12.42;98837.25;4992526;28;20025;-72
2023/08/20 08:32:40;;;;;;;4.87;1.57;;;;;;;47.33;12.84;98839.44;4992602;28;20026;-72
2023/08/20 08:35:06;;;;;;;6.03;1.60;;;;;;;47.25;12.70;98839.22;4976246;28;20517;-71
2023/08/20 08:37:32;;;;;;;5.35;1.40;;;;;;;47.16;12.49;98846.13;4976202;28;20042;-71
2023/08/20 08:39:57;;;;;;;2.70;1.40;;;;;;;47.04;12.79;98847.03;4992442;28;20351;-72
2023/08/20 08:42:23;;;;;;;3.90;1.40;;;;;;;46.94;12.53;98845.63;4992382;28;20030;-72
2023/08/20 08:44:48;;;;;;;2.47;1.50;;;;;;;46.79;12.39;98844.44;4975962;28;20026;-72
2023/08/20 08:47:14;;;;;;;3.43;1.50;;;;;;;46.67;12.41;98839.00;4976234;28;20038;-71
2023/08/20 08:49:39;;;;;;;5.47;1.70;;;;;;;46.49;12.36;98836.56;4993397;28;20034;-72
2023/08/20 08:52:06;;;;;;;5.57;1.70;;;;;;;46.31;12.92;98840.84;4976129;28;20030;-72
2023/08/20 08:54:32;;;;;;;4.75;1.63;;;;;;;46.13;13.13;98841.16;4975944;28;20027;-71
2023/08/20 08:56:58;;;;;;;3.33;1.40;;;;;;;46.04;12.99;98834.97;4976217;28;20070;-72
2023/08/20 08:59:23;;;;;;;3.30;1.53;;;;;;;45.90;13.39;98832.63;4992233;28;20085;-71
2023/08/20 09:01:49;;;;;;;3.67;1.70;;;;;;;45.79;13.40;98823.25;4975767;28;20450;-72
2023/08/20 09:04:14;;;;;;;3.63;1.70;;;;;;;45.67;13.31;98827.63;4975880;28;20037;-70
2023/08/20 09:06:50;;;;;;;3.53;1.87;;;;;;;45.50;13.38;98823.19;4992529;28;20027;-70
2023/08/20 09:09:20;;;;;;;7.50;1.83;;;;;;;45.34;13.50;98825.84;4959804;28;20502;-71
2023/08/20 09:11:46;;;;;;;4.05;1.90;;;;;;;45.23;13.26;98824.72;4991486;28;20096;-71
2023/08/20 09:14:27;;;;;;;4.93;1.80;;;;;;;45.11;13.94;98827.50;4959653;28;20118;-70
2023/08/20 09:16:56;;;;;;;3.17;1.63;;;;;;;45.04;13.74;98819.81;4976121;28;20127;-72
2023/08/20 09:19:22;;;;;;;6.35;1.65;;;;;;;44.93;13.60;98815.88;4993023;28;20026;-72
2023/08/20 09:21:48;;;;;;;4.73;1.77;;;;;;;44.77;14.20;98818.50;4976022;28;20535;-71
2023/08/20 09:24:14;;;;;;;3.47;1.42;;;;;;;44.69;13.93;98828.47;4975225;28;20038;-72
2023/08/20 09:26:39;;;;;;;3.87;1.50;;;;;;;44.52;14.57;98828.66;4991895;28;20042;-71
2023/08/20 09:29:05;;;;;;;5.43;1.97;;;;;;;44.39;14.40;98820.41;4992036;28;20038;-71
2023/08/20 09:31:38;;;;;;;4.40;1.70;;;;;;;44.23;14.57;98809.25;4991513;28;20026;-72
2023/08/20 09:34:03;;;;;;;6.93;1.80;;;;;;;44.12;14.79;98804.47;4975737;28;20030;-72
2023/08/20 09:36:33;;;;;;;5.83;1.70;;;;;;;44.00;15.27;98813.50;4975451;28;20081;-71
2023/08/20 09:38:58;;;;;;;3.40;1.65;;;;;;;43.95;15.38;98816.44;4991658;28;20030;-71
2023/08/20 09:41:24;;;;;;;5.13;1.70;;;;;;;43.89;15.81;98810.38;4959441;28;20030;-72
2023/08/20 09:43:57;;;;;;;4.97;2.00;;;;;;;43.76;15.58;98811.41;4975507;28;20033;-71
2023/08/20 09:46:27;;;;;;;6.65;1.60;;;;;;;43.68;15.44;98804.84;4959949;28;20123;-71
2023/08/20 09:48:54;;;;;;;6.15;1.80;;;;;;;43.63;15.50;98808.59;4976619;28;20129;-71
2023/08/20 09:51:26;;;;;;;4.43;1.80;;;;;;;43.48;15.29;98804.53;4979440;28;20026;-72
2023/08/20 09:54:09;;;;;;;6.03;1.60;;;;;;;43.36;15.38;98808.00;4963434;28;20184;-72
2023/08/20 09:56:39;;;;;;;3.42;1.58;;;;;;;43.22;15.11;98801.91;4980297;28;20026;-71
2023/08/20 09:59:05;;;;;;;2.72;1.67;;;;;;;43.10;15.67;98804.59;4979613;28;20069;-72
2023/08/20 10:01:30;;;;;;;4.93;1.53;;;;;;;42.99;16.07;98809.66;4978696;28;20061;-70
2023/08/20 10:03:56;;;;;;;3.97;1.73;;;;;;;42.88;16.28;98795.47;4963015;28;20493;-71
2023/08/20 10:06:22;;;;;;;5.80;1.80;;;;;;;42.64;16.23;98796.88;4979164;28;20022;-71
2023/08/20 10:08:49;;;;;;;4.15;1.88;;;;;;;42.57;16.49;98788.34;4979040;28;20066;-71
2023/08/20 10:11:15;;;;;;;5.07;1.70;;;;;;;42.46;16.86;98787.06;4995085;28;20121;-71
2023/08/20 10:13:40;;;;;;;3.00;1.50;;;;;;;42.30;17.46;98795.03;4979060;28;20113;-72
2023/08/20 10:16:06;;;;;;;3.30;1.50;;;;;;;42.26;16.81;98796.81;4962805;28;20062;-71
2023/08/20 10:18:31;;;;;;;7.73;1.70;;;;;;;42.19;16.61;98780.06;4995135;28;20042;-72
2023/08/20 10:20:59;;;;;;;2.90;1.70;;;;;;;42.07;16.52;98791.69;4962888;28;20041;-72
2023/08/20 10:23:24;;;;;;;5.22;1.52;;;;;;;41.98;16.39;98780.72;4979001;28;20065;-71
2023/08/20 10:25:51;;;;;;;3.60;1.77;;;;;;;41.91;16.66;98783.94;4995104;28;20399;-71
2023/08/20 10:28:25;;;;;;;2.17;1.70;;;;;;;41.75;16.67;98775.44;4978954;28;20023;-71
2023/08/20 10:31:07;;;;;;;4.47;1.80;;;;;;;41.69;16.62;98781.38;4962383;28;20049;-71
2023/08/20 10:33:38;;;;;;;3.22;1.52;;;;;;;41.54;16.70;98763.47;4978193;28;20034;-71
2023/08/20 10:36:18;;;;;;;5.18;1.80;;;;;;;41.49;16.74;98767.16;4978666;28;20038;-71
2023/08/20 10:38:45;;;;;;;6.03;1.75;;;;;;;41.36;16.78;98763.47;4963983;28;20026;-71
2023/08/20 10:41:11;;;;;;;4.32;1.90;;;;;;;41.28;16.82;98760.69;4962295;28;20422;-72
2023/08/20 10:43:40;;;;;;;4.32;1.80;;;;;;;41.19;16.66;98757.94;4996057;28;20131;-70
2023/08/20 10:46:14;;;;;;;5.15;1.83;;;;;;;41.03;16.78;98750.19;4978221;28;20046;-71
2023/08/20 10:48:40;;;;;;;2.97;1.65;;;;;;;40.89;17.00;98756.91;4994783;28;20027;-71
2023/08/20 10:51:13;;;;;;;3.13;1.73;;;;;;;40.76;17.15;98748.47;4994548;28;20043;-72
2023/08/20 10:53:39;;;;;;;6.03;1.80;;;;;;;40.71;17.27;98754.09;4994358;28;20030;-71
2023/08/20 10:56:15;;;;;;;6.30;1.92;;;;;;;40.58;17.46;98736.69;4994858;28;20034;-72
2023/08/20 10:58:45;;;;;;;4.90;1.63;;;;;;;40.51;17.76;98750.00;4978338;28;20061;-71
2023/08/20 11:01:21;;;;;;;5.32;1.70;;;;;;;40.38;17.44;98729.81;4994393;28;20038;-71
2023/08/20 11:03:48;;;;;;;4.27;1.73;;;;;;;40.34;17.78;98734.28;4978745;28;20401;-72
2023/08/20 11:06:14;;;;;;;4.93;1.80;;;;;;;40.20;17.98;98731.66;4995344;28;20030;-71
2023/08/20 11:08:42;;;;;;;5.45;1.70;;;;;;;40.14;17.61;98741.91;4978020;28;20176;-71
2023/08/20 11:11:08;;;;;;;5.70;1.67;;;;;;;40.07;17.51;98740.75;4977777;28;20066;-71
2023/08/20 11:13:33;;;;;;;3.45;1.80;;;;;;;39.98;17.61;98737.97;4993996;28;20065;-71
2023/08/20 11:16:00;;;;;;;5.85;1.80;;;;;;;39.88;18.18;98736.25;4978223;28;20042;-71
2023/08/20 11:18:25;;;;;;;4.10;1.90;;;;;;;39.80;18.09;98735.09;4993770;28;20088;-70
2023/08/20 11:20:51;;;;;;;4.78;1.88;;;;;;;39.70;18.04;98727.13;4977520;28;20413;-72
2023/08/20 11:23:17;;;;;;;3.47;1.83;;;;;;;39.56;17.69;98708.06;4961555;28;20031;-73
2023/08/20 11:25:43;;;;;;;5.10;1.60;;;;;;;39.43;17.82;98720.63;4977712;28;20037;-73
2023/08/20 11:28:09;;;;;;;3.03;1.67;;;;;;;39.38;17.49;98723.50;4978007;28;20105;-70
2023/08/20 11:30:34;;;;;;;3.28;1.70;;;;;;;39.29;17.38;98732.72;4994893;28;20034;-72